Time;durP1;ratioP1;P1;durP2;ratioP2;P2;SDS_P1;SDS_P2;PMS_P1;PMS_P2;Temp;Humidity;BMP_temperature;BMP_pressure;BME280_temperature;BME280_humidity;BME280_pressure;Samples;Min_cycle;Max_cycle;Signal;HPM_P1;HPM_P2
2022/07/10 00:02:03;;;;;;;3.33;0.65;;;19.80;45.80;;;17.73;51.50;101600.03;12244121;19;20033;-80
2022/07/10 00:06:06;;;;;;;4.13;0.70;;;19.80;45.80;;;17.55;51.35;101575.78;12247399;19;20505;-80
2022/07/10 00:10:08;;;;;;;4.95;0.95;;;20.10;46.00;;;17.60;51.35;101600.06;12240920;19;20035;-79
2022/07/10 00:14:10;;;;;;;3.70;0.90;;;19.70;45.80;;;17.68;51.58;101609.13;12249774;19;20022;-80
2022/07/10 00:18:12;;;;;;;3.17;0.88;;;19.70;45.90;;;17.61;51.49;101599.97;12246427;19;20022;-80
2022/07/10 00:22:14;;;;;;;1.58;0.77;;;19.90;46.00;;;17.44;51.38;101572.13;12244465;19;20014;-80
2022/07/10 00:26:15;;;;;;;1.80;0.65;;;19.60;46.00;;;17.47;51.32;101571.91;12247289;19;20019;-80
2022/07/10 00:30:17;;;;;;;3.25;0.85;;;19.60;46.30;;;17.47;51.68;101585.09;12244957;19;20100;-80
2022/07/10 00:34:19;;;;;;;4.55;0.90;;;19.50;45.90;;;17.41;51.47;101574.09;12250207;19;20010;-80
2022/07/10 00:38:21;;;;;;;1.48;0.70;;;19.50;46.00;;;17.55;51.53;101597.78;12244682;19;20014;-80
2022/07/10 00:42:23;;;;;;;2.03;0.60;;;19.40;45.90;;;17.38;51.43;101567.25;12247841;19;20018;-80
2022/07/10 00:46:26;;;;;;;1.40;0.77;;;19.50;46.00;;;17.48;51.28;101589.41;12244284;19;20496;-80
2022/07/10 00:50:28;;;;;;;2.35;0.70;;;19.50;45.90;;;17.24;51.69;101555.03;12244778;19;20366;-80
2022/07/10 00:54:32;;;;;;;2.00;0.60;;;19.60;46.00;;;17.32;51.51;101562.41;12248025;19;20014;-80
2022/07/10 00:58:35;;;;;;;3.10;0.88;;;19.70;46.00;;;17.38;51.32;101566.41;12248296;19;20018;-80
2022/07/10 01:02:42;;;;;;;2.00;0.65;;;19.40;45.80;;;17.38;51.70;101571.69;12239999;19;20018;-80
2022/07/10 01:06:43;;;;;;;1.73;0.50;;;19.30;45.80;;;17.29;51.64;101564.44;12245078;19;20468;-80
2022/07/10 01:10:47;;;;;;;1.05;0.60;;;19.80;46.10;;;17.21;51.47;101557.03;12243423;19;20401;-80
2022/07/10 01:14:49;;;;;;;2.45;0.50;;;19.30;45.90;;;17.23;51.63;101563.91;12235468;19;20039;-80
2022/07/10 01:18:51;;;;;;;0.68;0.47;;;19.30;45.90;;;16.96;51.67;101527.09;12242949;19;20348;-80
2022/07/10 01:22:53;;;;;;;2.00;0.70;;;19.60;46.10;;;17.15;51.57;101553.03;12233291;19;20028;-79
2022/07/10 01:26:55;;;;;;;2.00;0.50;;;19.20;46.00;;;17.16;51.57;101546.78;12248239;19;20086;-80
2022/07/10 01:30:56;;;;;;;0.60;0.52;;;19.20;46.10;;;17.16;51.63;101544.16;12245613;19;20518;-80
2022/07/10 01:34:58;;;;;;;0.45;0.32;;;19.60;46.40;;;17.08;51.61;101525.38;12243225;19;20020;-80
2022/07/10 01:38:59;;;;;;;1.58;0.50;;;19.30;46.30;;;17.07;51.47;101515.78;12241564;19;20352;-80
2022/07/10 01:43:01;;;;;;;0.95;0.65;;;19.60;46.30;;;17.17;51.63;101530.00;12238016;19;20052;-80
2022/07/10 01:47:03;;;;;;;4.90;0.70;;;19.20;46.20;;;17.04;51.47;101516.00;12246863;19;20673;-80
2022/07/10 01:51:06;;;;;;;4.05;1.17;;;19.20;46.20;;;17.07;51.73;101515.78;12242876;19;20015;-80
2022/07/10 01:55:09;;;;;;;2.63;0.50;;;19.20;46.20;;;17.23;51.83;101548.06;12244905;19;20126;-80
2022/07/10 01:59:11;;;;;;;2.42;0.70;;;19.20;46.20;;;17.03;51.65;101519.56;12241883;19;20362;-80
2022/07/10 02:07:32;;;;;;;1.38;0.47;;;19.10;46.40;;;17.08;51.96;101543.84;12240117;19;20508;-79
2022/07/10 02:11:34;;;;;;;1.63;0.55;;;19.50;46.50;;;17.05;51.81;101545.88;12241372;19;20010;-79
2022/07/10 02:15:36;;;;;;;6.03;1.20;;;19.10;46.40;;;17.12;51.93;101555.91;12245921;19;20014;-80
2022/07/10 02:19:38;;;;;;;2.95;0.75;;;19.10;46.50;;;17.05;51.95;101538.78;12242809;19;20022;-80
2022/07/10 02:23:40;;;;;;;2.20;0.57;;;19.10;46.60;;;17.08;51.73;101537.72;12242957;19;20496;-80
2022/07/10 02:27:42;;;;;;;2.50;0.93;;;19.10;46.60;;;16.95;51.95;101528.00;12240645;19;20014;-80
2022/07/10 02:31:44;;;;;;;2.80;0.77;;;19.10;46.70;;;16.98;52.15;101526.97;12239503;19;20017;-80
2022/07/10 02:35:46;;;;;;;2.35;0.60;;;19.00;46.70;;;17.10;52.06;101541.94;12244486;19;20030;-80
2022/07/10 02:39:47;;;;;;;0.93;0.47;;;19.10;46.80;;;17.08;52.05;101533.28;12240055;19;20006;-79
2022/07/10 02:43:49;;;;;;;0.70;0.60;;;19.40;46.80;;;17.02;52.05;101526.66;12240967;19;20481;-80
2022/07/10 02:47:51;;;;;;;1.02;0.40;;;19.10;46.50;;;17.06;52.17;101540.47;12238802;19;20023;-80
2022/07/10 02:51:53;;;;;;;1.63;0.60;;;19.00;46.60;;;16.97;52.04;101522.66;12238859;19;20010;-80
2022/07/10 02:55:54;;;;;;;3.30;0.50;;;19.10;46.70;;;17.07;52.07;101539.53;12242939;19;20014;-80
2022/07/10 02:59:56;;;;;;;0.40;0.40;;;19.10;46.70;;;16.68;51.93;101477.13;12239374;19;20031;-79
2022/07/10 03:03:58;;;;;;;1.65;0.70;;;19.30;46.80;;;16.89;51.88;101515.25;12240438;19;20022;-79
2022/07/10 03:08:00;;;;;;;2.88;0.75;;;19.00;46.70;;;17.01;52.15;101539.94;12240703;19;20021;-81
2022/07/10 03:12:02;;;;;;;3.47;0.60;;;19.00;46.80;;;16.89;52.28;101522.31;12236390;19;20037;-80
2022/07/10 03:16:03;;;;;;;1.88;0.60;;;19.00;46.80;;;16.78;52.35;101505.44;12236266;19;20040;-79
2022/07/10 03:20:08;;;;;;;2.33;0.70;;;18.90;46.80;;;16.85;52.37;101521.72;12236618;19;20039;-78
2022/07/10 03:24:10;;;;;;;0.50;0.47;;;18.90;47.00;;;16.80;52.39;101518.53;12235962;19;20042;-78
2022/07/10 03:28:11;;;;;;;2.45;0.80;;;18.90;47.10;;;16.80;52.20;101514.09;12241064;19;20372;-78
2022/07/10 03:32:13;;;;;;;2.42;0.50;;;18.80;47.10;;;16.86;52.42;101522.53;12237916;19;20065;-78
2022/07/10 03:36:15;;;;;;;1.13;0.50;;;19.00;47.20;;;16.69;52.28;101492.88;12241500;19;20033;-78
2022/07/10 03:40:17;;;;;;;0.90;0.60;;;18.90;47.20;;;16.82;52.37;101521.88;12238240;19;20007;-78
2022/07/10 03:44:18;;;;;;;1.45;0.50;;;19.20;47.20;;;16.64;52.25;101497.59;12242125;19;20007;-78
2022/07/10 03:48:20;;;;;;;3.00;0.63;;;18.90;47.30;;;16.41;52.46;101442.97;12237542;19;20030;-78
2022/07/10 03:52:21;;;;;;;2.90;0.80;;;18.80;47.20;;;16.68;52.50;101501.72;12237527;19;20014;-78
2022/07/10 04:00:43;;;;;;;0.77;0.43;;;18.70;47.20;;;16.72;52.48;101523.47;12239599;19;20439;-78
2022/07/10 04:04:45;;;;;;;1.67;0.45;;;18.80;47.20;;;16.58;52.54;101512.06;12239660;19;20365;-78
2022/07/10 04:08:46;;;;;;;3.13;0.57;;;18.70;47.30;;;16.58;52.49;101511.22;12236079;19;20382;-78
2022/07/10 04:12:49;;;;;;;1.50;0.57;;;18.70;47.40;;;16.53;52.66;101503.63;12237622;19;20139;-78
2022/07/10 04:16:50;;;;;;;2.20;0.57;;;18.60;47.40;;;16.30;52.85;101473.50;12234662;19;20088;-78
2022/07/10 04:20:52;;;;;;;0.93;0.45;;;18.60;47.50;;;16.32;52.63;101473.44;12231976;19;20010;-78
2022/07/10 04:24:54;;;;;;;1.30;0.57;;;18.60;47.60;;;16.47;52.85;101495.25;12235899;19;20019;-78
2022/07/10 04:28:56;;;;;;;0.45;0.43;;;18.50;47.80;;;16.63;53.03;101519.63;12238585;19;20483;-78
2022/07/10 04:32:58;;;;;;;2.95;0.68;;;18.70;47.80;;;16.70;52.79;101530.63;12233125;19;20091;-79
2022/07/10 04:37:00;;;;;;;1.70;0.45;;;18.60;47.90;;;16.38;52.88;101471.22;12235094;19;20023;-78
2022/07/10 04:41:01;;;;;;;1.70;0.50;;;18.60;47.90;;;16.66;52.73;101516.81;12231196;19;20018;-78
2022/07/10 04:45:04;;;;;;;1.75;0.60;;;18.60;47.90;;;16.33;52.96;101457.50;12239285;19;20017;-78
2022/07/10 04:49:06;;;;;;;0.70;0.43;;;18.70;47.90;;;16.60;53.03;101498.75;12242653;19;20472;-79
2022/07/10 04:53:08;;;;;;;1.10;0.50;;;18.60;48.00;;;16.68;53.10;101506.16;12248572;19;20018;-78
2022/07/10 04:57:09;;;;;;;2.45;0.70;;;18.60;48.00;;;16.68;52.90;101506.16;12245410;19;20025;-78
2022/07/10 05:01:11;;;;;;;1.33;0.55;;;18.70;48.10;;;16.62;52.95;101499.50;12245855;19;20022;-78
2022/07/10 05:05:13;;;;;;;1.88;0.55;;;18.80;48.20;;;16.59;53.25;101483.88;12248510;19;20035;-78
2022/07/10 05:09:15;;;;;;;1.20;0.70;;;18.70;48.30;;;16.72;52.91;101500.56;12246195;19;20026;-78
2022/07/10 05:13:17;;;;;;;3.72;0.55;;;18.70;48.20;;;16.50;53.08;101469.53;12248264;19;20011;-78
2022/07/10 05:17:18;;;;;;;2.53;0.60;;;18.70;48.10;;;16.35;53.18;101455.59;12248252;19;20029;-78
2022/07/10 05:21:20;;;;;;;1.33;0.60;;;19.00;48.20;;;16.55;53.15;101477.13;12244362;19;20015;-78
2022/07/10 05:25:22;;;;;;;1.95;0.80;;;18.80;48.30;;;16.80;53.29;101513.25;12246174;19;20011;-78
2022/07/10 05:29:24;;;;;;;3.05;0.70;;;18.70;48.20;;;16.47;53.36;101461.84;12244889;19;20018;-78
2022/07/10 05:33:28;;;;;;;1.15;0.57;;;18.70;48.40;;;16.81;53.49;101505.22;12244478;19;20022;-78
2022/07/10 05:37:30;;;;;;;1.10;0.60;;;19.00;48.40;;;16.87;53.35;101509.22;12248320;19;20515;-78
2022/07/10 05:41:32;;;;;;;2.80;0.82;;;18.80;48.30;;;16.87;53.40;101509.22;12242306;19;20022;-78
2022/07/10 05:45:34;;;;;;;3.05;1.02;;;18.90;48.70;;;16.92;53.17;101508.91;12245610;19;20018;-78
2022/07/10 05:49:36;;;;;;;2.13;0.52;;;18.80;48.30;;;16.85;53.41;101500.59;12242061;19;20039;-78
2022/07/10 05:53:38;;;;;;;1.15;0.80;;;18.80;48.20;;;16.99;53.17;101516.31;12249422;19;20070;-78
2022/07/10 05:57:40;;;;;;;2.40;0.82;;;18.90;48.30;;;16.84;53.15;101503.34;12244032;19;20018;-78
2022/07/10 06:01:42;;;;;;;3.40;1.15;;;18.90;48.30;;;16.97;53.38;101509.44;12244277;19;20015;-78
2022/07/10 06:05:43;;;;;;;1.65;0.65;;;18.90;48.20;;;16.88;53.20;101489.84;12243357;19;20102;-78
2022/07/10 06:09:45;;;;;;;3.17;0.90;;;19.10;48.20;;;16.98;53.39;101503.22;12243976;19;20019;-78
2022/07/10 06:13:47;;;;;;;0.98;0.50;;;19.00;48.30;;;16.96;53.31;101497.22;12244966;19;20018;-78
2022/07/10 06:17:49;;;;;;;4.80;0.90;;;19.20;48.30;;;17.13;53.18;101525.91;12244639;19;20021;-78
2022/07/10 06:22:30;;;;;;;2.60;1.08;;;19.10;48.70;;;17.12;53.11;101516.31;12239265;19;20014;-78
2022/07/10 06:26:12;;;;;;;4.60;1.50;;;19.10;48.20;;;17.15;53.13;101512.59;12243349;19;20018;-78
2022/07/10 06:30:14;;;;;;;2.15;1.10;;;19.10;48.10;;;17.21;53.29;101528.84;12242330;19;20014;-78
2022/07/10 06:34:16;;;;;;;2.78;1.00;;;19.30;48.10;;;17.19;53.37;101524.63;12240914;19;20015;-78
2022/07/10 06:38:17;;;;;;;2.80;1.25;;;19.10;48.00;;;17.21;53.14;101512.16;12243365;19;20014;-78
2022/07/10 06:42:19;;;;;;;1.88;0.98;;;19.20;48.00;;;17.16;53.09;101504.56;12240164;19;20039;-79
2022/07/10 06:46:25;;;;;;;1.23;0.77;;;19.20;48.10;;;17.22;53.24;101504.13;12246176;19;20654;-78
2022/07/10 06:50:31;;;;;;;1.48;0.85;;;19.20;48.00;;;17.20;53.22;101502.53;12240678;19;20019;-80
2022/07/10 06:54:33;;;;;;;2.42;0.77;;;19.20;48.20;;;17.20;53.11;101494.63;12241869;19;20019;-78
2022/07/10 06:58:35;;;;;;;3.38;0.63;;;19.30;48.10;;;17.16;53.07;101486.09;12239156;19;20595;-79
2022/07/10 07:02:36;;;;;;;2.25;0.90;;;19.20;48.20;;;17.37;53.32;101496.91;12235672;19;20039;-78
2022/07/10 07:06:38;;;;;;;1.27;0.63;;;19.50;48.10;;;17.46;53.01;101501.53;12242876;19;20556;-78
2022/07/10 07:10:40;;;;;;;4.18;0.93;;;19.40;48.00;;;17.57;53.03;101511.31;12239333;19;20111;-78
2022/07/10 07:14:42;;;;;;;1.90;0.75;;;19.80;48.10;;;17.55;53.00;101489.50;12242411;19;20051;-78
2022/07/10 07:18:52;;;;;;;1.02;0.60;;;19.50;47.90;;;17.77;52.79;101514.31;12239962;19;20027;-78
2022/07/10 07:23:12;;;;;;;5.00;0.70;;;19.60;48.00;;;17.61;52.72;101480.28;12234960;19;20039;-78
2022/07/10 07:27:13;;;;;;;2.15;0.90;;;19.60;47.80;;;17.83;52.93;101513.91;12235893;19;20006;-78
2022/07/10 07:31:17;;;;;;;4.43;1.02;;;19.70;47.70;;;17.89;52.66;101519.59;12236049;19;20014;-78
2022/07/10 07:35:19;;;;;;;3.35;0.73;;;19.80;47.50;;;17.66;52.90;101480.75;12239213;19;20024;-79
2022/07/10 07:39:21;;;;;;;2.28;0.70;;;20.00;47.50;;;17.95;52.71;101509.53;12237643;19;20018;-79
2022/07/10 07:43:22;;;;;;;1.70;0.88;;;19.80;47.50;;;18.07;52.36;101527.97;12236795;19;20022;-78
2022/07/10 07:47:25;;;;;;;2.75;0.90;;;20.10;47.20;;;18.08;52.50;101519.06;12235022;19;20041;-78
2022/07/10 07:51:26;;;;;;;3.55;1.00;;;20.00;47.20;;;17.83;52.52;101472.47;12238088;19;20014;-78
2022/07/10 07:55:30;;;;;;;2.25;0.70;;;20.00;47.20;;;18.04;52.13;101496.47;12240208;19;20082;-79
2022/07/10 07:59:32;;;;;;;1.90;0.80;;;20.00;46.90;;;18.25;52.29;101524.91;12239006;19;20350;-79
2022/07/10 08:03:34;;;;;;;3.03;0.90;;;20.00;47.00;;;18.26;52.51;101521.31;12238700;19;20026;-78
2022/07/10 08:07:50;;;;;;;2.67;0.90;;;20.10;47.00;;;18.20;52.16;101501.47;12240080;19;20007;-78
2022/07/10 08:11:52;;;;;;;2.85;0.82;;;20.10;46.60;;;18.30;51.88;101509.53;12234490;19;20010;-78
2022/07/10 08:15:54;;;;;;;1.75;0.68;;;20.30;46.60;;;18.39;51.87;101506.22;12240935;19;20015;-78
2022/07/10 08:19:55;;;;;;;6.25;1.25;;;20.20;46.70;;;18.47;51.96;101511.75;12235190;19;20025;-79
2022/07/10 08:23:58;;;;;;;3.28;1.35;;;20.40;46.30;;;18.48;51.87;101489.63;12250519;19;20425;-79
2022/07/10 08:28:03;;;;;;;1.13;0.68;;;20.30;46.20;;;18.65;51.57;101501.56;12253359;19;20089;-78
2022/07/10 08:32:06;;;;;;;2.85;1.00;;;20.40;45.80;;;18.67;51.60;101485.56;12244483;19;20019;-80
2022/07/10 08:36:08;;;;;;;3.60;0.82;;;20.50;46.00;;;18.76;51.25;101484.88;12251132;19;20022;-79
2022/07/10 08:40:12;;;;;;;3.50;0.90;;;20.60;45.40;;;18.99;51.17;101509.56;12247765;19;20007;-78
2022/07/10 08:44:14;;;;;;;6.78;1.60;;;20.80;45.20;;;18.97;50.90;101488.50;12251719;19;20214;-79
2022/07/10 08:48:23;;;;;;;3.47;0.90;;;20.80;45.10;;;19.00;50.79;101485.59;12246360;19;20023;-78
2022/07/10 08:52:50;;;;;;;4.90;0.75;;;20.90;45.00;;;19.21;50.62;101492.84;12245988;19;20039;-79
2022/07/10 08:56:52;;;;;;;2.40;0.93;;;21.00;45.10;;;19.34;50.57;101485.59;12246785;19;20092;-79
2022/07/10 09:00:54;;;;;;;2.42;0.90;;;21.10;44.90;;;19.52;50.33;101503.59;12247132;19;20029;-79
2022/07/10 09:04:56;;;;;;;1.77;0.63;;;21.20;45.00;;;19.63;50.47;101503.56;12247502;19;20399;-79
2022/07/10 09:09:06;;;;;;;2.85;0.93;;;21.30;44.50;;;19.57;50.15;101490.84;12242005;19;20042;-79
2022/07/10 09:13:07;;;;;;;2.97;0.73;;;21.50;44.30;;;19.62;49.98;101513.34;12249220;19;20018;-79
2022/07/10 09:17:09;;;;;;;2.80;0.90;;;21.50;43.80;;;19.49;50.14;101501.22;12244999;19;20025;-79
2022/07/10 09:21:11;;;;;;;2.83;0.95;;;21.50;43.90;;;19.41;49.90;101510.59;12245271;19;20010;-79
2022/07/10 09:25:14;;;;;;;2.35;0.77;;;21.50;44.10;;;19.38;49.84;101513.50;12245991;19;20027;-79
2022/07/10 09:29:15;;;;;;;3.05;0.98;;;21.50;43.80;;;19.24;49.79;101498.72;12245620;19;20011;-80
2022/07/10 09:33:25;;;;;;;1.60;0.65;;;21.30;43.70;;;19.34;49.81;101533.28;12245749;19;20025;-78
2022/07/10 09:37:29;;;;;;;4.05;0.95;;;21.30;43.70;;;18.94;49.80;101469.38;12245202;19;20342;-78
2022/07/10 09:41:32;;;;;;;4.20;1.10;;;21.50;43.90;;;19.26;49.79;101533.03;12240220;19;20031;-78
2022/07/10 09:45:35;;;;;;;2.67;1.00;;;21.40;43.80;;;19.21;49.94;101525.44;12241848;19;20050;-78
2022/07/10 09:49:36;;;;;;;2.83;0.98;;;21.20;43.80;;;19.27;49.75;101523.28;12245227;19;20022;-78
2022/07/10 09:53:44;;;;;;;1.65;0.80;;;21.20;43.80;;;19.07;49.74;101479.84;12247497;19;20389;-78
2022/07/10 09:57:54;;;;;;;1.88;0.70;;;21.20;44.00;;;19.33;49.36;101498.94;12249386;19;20360;-78
2022/07/10 10:01:59;;;;;;;2.83;0.85;;;21.50;44.00;;;19.59;49.58;101529.50;12243422;19;20010;-78
2022/07/10 10:06:15;;;;;;;5.70;1.20;;;21.30;44.20;;;19.70;49.02;101525.16;12245259;19;20007;-78
2022/07/10 10:10:19;;;;;;;2.20;0.70;;;21.30;43.40;;;19.80;49.11;101529.59;12240672;19;20252;-78
2022/07/10 10:14:23;;;;;;;5.82;1.52;;;21.50;43.50;;;19.76;49.05;101496.34;12245578;19;20014;-78
2022/07/10 10:18:26;;;;;;;3.47;0.90;;;21.60;43.60;;;19.94;49.22;101512.56;12241775;19;20007;-78
2022/07/10 10:22:29;;;;;;;5.05;1.00;;;21.70;43.30;;;20.09;49.05;101527.22;12236711;19;20014;-78
2022/07/10 10:26:31;;;;;;;2.90;1.00;;;21.70;43.50;;;20.09;48.56;101526.34;12246700;19;20031;-78
2022/07/10 10:30:36;;;;;;;7.10;1.55;;;22.00;43.30;;;20.20;48.60;101523.69;12239483;19;20366;-78
2022/07/10 10:34:58;;;;;;;6.43;1.10;;;21.90;43.00;;;20.13;48.45;101498.63;12244396;19;20018;-78
2022/07/10 10:39:10;;;;;;;3.95;1.23;;;22.10;43.10;;;20.26;48.43;101503.75;12242799;19;20010;-79
2022/07/10 10:43:24;;;;;;;2.47;0.68;;;22.00;42.90;;;20.40;48.61;101523.81;12244467;19;20010;-78
2022/07/10 10:47:26;;;;;;;3.22;1.05;;;22.10;43.10;;;20.44;48.41;101522.56;12239274;19;20018;-78
2022/07/10 10:52:02;;;;;;;3.42;1.00;;;22.20;42.80;;;20.46;48.05;101523.28;12241530;19;20052;-79
2022/07/10 10:56:04;;;;;;;2.67;0.90;;;22.20;42.00;;;20.48;48.58;101534.63;12241987;19;20014;-79
2022/07/10 11:00:07;;;;;;;1.27;0.70;;;22.40;42.90;;;20.17;48.22;101484.16;12240878;19;20372;-79
2022/07/10 11:04:08;;;;;;;2.45;0.77;;;22.30;42.70;;;20.54;48.28;101542.09;12241071;19;20055;-78
2022/07/10 11:08:12;;;;;;;2.53;0.70;;;22.30;42.70;;;20.53;48.05;101538.59;12240111;19;20025;-78
2022/07/10 11:12:14;;;;;;;3.00;1.00;;;22.30;42.50;;;20.48;47.94;101514.22;12235918;19;20018;-79
2022/07/10 11:16:16;;;;;;;3.03;0.80;;;22.30;42.20;;;20.61;47.35;101527.34;12236167;19;20022;-79
2022/07/10 11:20:18;;;;;;;3.88;1.02;;;22.40;42.10;;;20.73;47.88;101531.59;12240563;19;20042;-79
2022/07/10 11:24:57;;;;;;;1.63;0.77;;;22.50;42.50;;;20.86;47.35;101531.38;12240137;19;20081;-78
2022/07/10 11:29:08;;;;;;;2.22;0.80;;;22.50;42.00;;;20.84;47.58;101525.34;12236595;19;20028;-79
2022/07/10 11:33:09;;;;;;;2.65;0.90;;;22.60;42.10;;;20.94;47.39;101525.41;12240675;19;20019;-78
2022/07/10 11:37:16;;;;;;;5.20;0.98;;;22.90;41.90;;;21.08;46.87;101533.03;12236421;19;20026;-79
2022/07/10 11:41:21;;;;;;;1.00;0.60;;;22.70;41.40;;;21.09;46.80;101532.06;12234893;19;20480;-78
2022/07/10 11:45:31;;;;;;;4.53;1.10;;;22.90;41.40;;;21.24;46.84;101529.03;12240868;19;20483;-79
2022/07/10 11:49:34;;;;;;;1.88;0.77;;;22.90;41.70;;;21.29;46.75;101516.19;12233044;19;20025;-79
2022/07/10 11:53:36;;;;;;;5.63;1.40;;;23.00;41.50;;;21.30;46.48;101520.50;12240830;19;20028;-78
2022/07/10 11:57:41;;;;;;;2.25;0.90;;;23.00;41.00;;;21.42;46.30;101536.25;12236912;19;20043;-78
2022/07/10 12:01:54;;;;;;;2.25;0.82;;;23.10;40.50;;;21.54;46.41;101529.00;12237427;19;20051;-78
2022/07/10 12:06:05;;;;;;;3.67;1.00;;;23.20;40.90;;;21.63;46.50;101520.22;12239780;19;20014;-79
2022/07/10 12:10:08;;;;;;;1.88;0.98;;;23.30;41.10;;;21.80;46.21;101528.50;12235491;19;20065;-78
2022/07/10 12:14:22;;;;;;;1.88;0.90;;;23.50;41.10;;;21.74;45.70;101526.38;12235657;19;20017;-78
2022/07/10 12:18:28;;;;;;;4.40;0.87;;;23.50;40.80;;;21.76;46.17;101527.09;12238712;19;20006;-78
2022/07/10 12:22:30;;;;;;;2.85;1.02;;;23.60;40.50;;;21.85;46.04;101536.91;12235167;19;20014;-78
2022/07/10 12:26:37;;;;;;;3.75;1.20;;;23.60;40.50;;;21.86;45.51;101523.47;12236419;19;20022;-79
2022/07/10 12:30:44;;;;;;;3.80;1.00;;;23.60;40.10;;;21.85;45.48;101529.78;12232748;19;20370;-78
2022/07/10 12:34:47;;;;;;;3.58;1.10;;;23.70;40.00;;;21.86;45.63;101530.59;12236019;19;20010;-78
2022/07/10 12:39:00;;;;;;;2.60;1.10;;;23.70;40.40;;;21.58;45.71;101479.94;12232690;19;20015;-78
2022/07/10 12:43:06;;;;;;;4.40;1.08;;;23.70;40.00;;;21.76;45.46;101530.56;12233939;19;20078;-79
2022/07/10 12:47:17;;;;;;;4.78;1.10;;;23.70;40.40;;;21.76;45.41;101549.19;12238207;19;20388;-78
2022/07/10 12:51:25;;;;;;;2.35;0.90;;;23.60;39.90;;;21.63;45.79;101541.50;12230895;19;20019;-78
2022/07/10 12:55:37;;;;;;;3.58;1.10;;;23.60;40.00;;;21.61;45.29;101538.13;12235308;19;20022;-78
2022/07/10 12:59:39;;;;;;;2.97;1.25;;;23.50;39.50;;;21.54;45.46;101522.84;12229621;19;20043;-78
2022/07/10 13:03:40;;;;;;;4.05;0.98;;;23.50;39.70;;;21.74;45.20;101531.69;12239463;19;20030;-78
2022/07/10 13:07:42;;;;;;;4.68;1.20;;;23.50;40.10;;;21.86;44.84;101538.56;12237699;19;20052;-79
2022/07/10 13:11:44;;;;;;;3.95;1.00;;;23.60;39.90;;;21.75;44.80;101528.91;12245317;19;20352;-79
2022/07/10 13:15:53;;;;;;;3.78;1.02;;;23.60;39.70;;;21.62;44.90;101520.34;12246339;19;20018;-78
2022/07/10 13:19:54;;;;;;;2.67;0.80;;;23.60;39.70;;;21.79;45.38;101548.06;12245724;19;20014;-78
2022/07/10 13:23:56;;;;;;;3.42;0.77;;;23.60;39.80;;;21.61;45.25;101522.19;12247094;19;20099;-78
2022/07/10 13:27:59;;;;;;;4.45;1.10;;;23.60;39.80;;;21.78;44.83;101543.75;12245778;19;20035;-78
2022/07/10 13:32:02;;;;;;;1.38;0.80;;;23.60;39.80;;;21.84;44.77;101544.03;12242837;19;20484;-78
2022/07/10 13:36:04;;;;;;;1.20;0.68;;;23.60;39.80;;;21.90;44.71;101547.13;12248241;19;20045;-77
2022/07/10 13:40:08;;;;;;;3.67;0.90;;;23.60;39.70;;;21.79;45.04;101518.81;12241515;19;20021;-78
2022/07/10 13:44:10;;;;;;;3.03;0.82;;;23.60;39.80;;;22.04;44.56;101538.75;12248186;19;20019;-78
2022/07/10 13:48:13;;;;;;;2.17;0.70;;;23.70;39.80;;;21.98;44.61;101523.31;12243199;19;20019;-78
2022/07/10 13:52:15;;;;;;;2.45;0.77;;;24.00;39.80;;;22.05;44.66;101533.25;12243111;19;20125;-78
2022/07/10 13:56:17;;;;;;;3.05;1.42;;;23.90;39.60;;;22.04;44.48;101534.25;12244058;19;20102;-78
2022/07/10 14:00:19;;;;;;;1.35;0.70;;;23.80;39.60;;;21.96;44.79;101541.25;12229237;19;20487;-78
2022/07/10 14:04:21;;;;;;;2.97;0.82;;;23.80;39.30;;;21.76;44.46;101522.59;12237099;19;20361;-78
2022/07/10 14:08:23;;;;;;;3.78;0.90;;;23.80;39.50;;;21.78;44.45;101531.28;12239124;19;20494;-78
2022/07/10 14:12:24;;;;;;;1.73;1.08;;;23.70;39.20;;;21.76;44.37;101519.09;12235611;19;20513;-78
2022/07/10 14:16:26;;;;;;;4.03;0.90;;;23.70;39.50;;;21.56;44.94;101479.22;12238460;19;20022;-78
2022/07/10 14:21:02;;;;;;;2.88;1.00;;;23.70;39.40;;;22.03;44.34;101531.72;12236062;19;20409;-78
2022/07/10 14:24:53;;;;;;;2.80;0.93;;;23.60;39.80;;;21.86;44.55;101474.75;12235565;19;20030;-78
2022/07/10 14:28:55;;;;;;;3.00;0.88;;;23.80;39.60;;;22.21;44.15;101519.44;12239206;19;20022;-78
2022/07/10 14:32:57;;;;;;;1.98;0.82;;;23.90;39.50;;;22.28;44.14;101539.19;12234062;19;20480;-78
2022/07/10 14:36:59;;;;;;;4.03;1.02;;;24.00;39.30;;;22.17;43.92;101514.50;12238466;19;20365;-78
2022/07/10 14:41:01;;;;;;;2.83;0.80;;;24.00;39.30;;;22.30;43.90;101533.72;12234021;19;20077;-78
2022/07/10 14:45:03;;;;;;;1.00;0.88;;;24.30;39.20;;;22.41;43.75;101519.41;12237954;19;20051;-78
2022/07/10 14:49:04;;;;;;;2.33;0.82;;;24.10;38.90;;;22.42;43.88;101535.25;12236515;19;20018;-78
2022/07/10 14:53:08;;;;;;;1.65;1.10;;;24.10;39.10;;;22.45;43.92;101511.00;12236389;19;20034;-78
2022/07/10 14:57:10;;;;;;;1.65;0.90;;;24.20;38.90;;;22.58;43.75;101509.88;12233569;19;20089;-78
2022/07/10 15:01:12;;;;;;;4.07;1.75;;;24.20;38.90;;;22.79;43.68;101514.97;12230440;19;20510;-78
2022/07/10 15:05:14;;;;;;;1.05;0.55;;;24.30;39.00;;;22.79;43.34;101493.66;12236984;19;20302;-78
2022/07/10 15:09:16;;;;;;;1.73;0.80;;;24.40;39.00;;;22.88;43.42;101506.13;12233165;19;20089;-78
2022/07/10 15:13:19;;;;;;;3.50;0.80;;;24.70;39.10;;;22.89;42.86;101492.66;12239709;19;20760;-78
2022/07/10 15:17:20;;;;;;;2.90;0.93;;;24.60;38.30;;;22.93;43.02;101491.38;12240061;19;20014;-78
2022/07/10 15:21:22;;;;;;;3.53;0.82;;;24.60;38.10;;;22.91;42.83;101485.34;12240900;19;20029;-78
2022/07/10 15:25:25;;;;;;;4.03;0.93;;;24.70;38.10;;;22.86;42.83;101498.28;12238745;19;20493;-78
2022/07/10 15:29:27;;;;;;;1.42;0.77;;;24.70;38.40;;;22.94;42.84;101500.22;12237853;19;20018;-78
2022/07/10 15:33:29;;;;;;;2.78;0.75;;;24.80;38.30;;;22.86;42.63;101468.97;12237852;19;20465;-77
2022/07/10 15:37:31;;;;;;;2.95;0.80;;;24.70;37.70;;;23.06;42.64;101484.91;12241251;19;20018;-77
2022/07/10 15:41:34;;;;;;;2.35;0.82;;;24.80;38.20;;;23.04;42.60;101460.25;12238830;19;20469;-78
2022/07/10 15:45:36;;;;;;;2.38;1.00;;;24.70;37.90;;;23.23;42.55;101484.13;12238721;19;20053;-78
2022/07/10 15:49:38;;;;;;;2.42;0.80;;;24.80;37.80;;;23.23;42.40;101483.28;12236764;19;20019;-78
2022/07/10 15:53:40;;;;;;;1.20;0.63;;;25.10;37.80;;;23.11;42.01;101466.66;12236893;19;20019;-78
2022/07/10 15:57:42;;;;;;;2.28;0.80;;;24.90;37.50;;;23.11;41.87;101470.13;12241426;19;20007;-78
2022/07/10 16:01:43;;;;;;;2.75;0.63;;;24.80;37.40;;;22.99;42.11;101452.69;12232298;19;20092;-78
2022/07/10 16:05:45;;;;;;;2.97;0.93;;;24.80;37.40;;;23.08;41.71;101464.28;12240449;19;20014;-78
2022/07/10 16:09:49;;;;;;;2.55;0.88;;;24.80;37.30;;;23.14;41.82;101458.34;12233661;19;20022;-78
2022/07/10 16:13:51;;;;;;;2.22;0.75;;;24.80;37.40;;;23.29;41.94;101475.53;12240345;19;20026;-78
2022/07/10 16:17:52;;;;;;;2.42;0.90;;;24.80;37.40;;;23.18;41.84;101433.09;12234598;19;20472;-78
2022/07/10 16:21:54;;;;;;;1.25;0.57;;;24.90;37.40;;;23.37;41.68;101454.28;12237158;19;20113;-78
2022/07/10 16:26:01;;;;;;;3.03;0.80;;;25.00;37.20;;;23.35;41.41;101453.59;12237194;19;20019;-78
2022/07/10 16:30:05;;;;;;;2.42;1.05;;;25.00;37.30;;;23.32;41.01;101451.22;12234978;19;20453;-78
2022/07/10 16:34:10;;;;;;;2.65;1.08;;;25.00;36.90;;;23.24;40.99;101436.97;12237410;19;20025;-78
2022/07/10 16:38:16;;;;;;;3.83;0.93;;;25.30;36.90;;;23.32;41.28;101453.91;12233834;19;20086;-78
2022/07/10 16:42:18;;;;;;;2.28;1.17;;;25.00;37.00;;;23.08;41.18;101417.16;12234728;19;20024;-79
2022/07/10 16:46:19;;;;;;;2.50;1.00;;;25.00;36.80;;;23.30;41.18;101458.53;12244913;19;20374;-80
2022/07/10 16:50:22;;;;;;;1.75;0.70;;;25.30;36.90;;;23.21;41.47;101454.13;12228465;19;20033;-80